Metar z pełnej godziny Komunikat METAR ze strony awiacja.imgw.pl Metar G00 EPBY METAR EPBY 291800Z 04014KT CAVOK 14/M00 Q1024=